createdAt,value
2019-01-13T00:01:17.599Z,15.47
2019-01-13T00:03:45.854Z,15.60
2019-01-13T00:06:14.180Z,12.50
2019-01-13T00:08:42.455Z,17.80
2019-01-13T00:11:10.710Z,14.07
2019-01-13T00:13:39.082Z,20.60
2019-01-13T00:16:07.338Z,16.48
2019-01-13T00:18:35.615Z,16.80
2019-01-13T00:21:03.948Z,18.57
2019-01-13T00:23:32.212Z,13.80
2019-01-13T00:26:00.520Z,12.73
2019-01-13T00:28:28.823Z,14.97
2019-01-13T00:30:57.105Z,7.25
2019-01-13T00:33:25.403Z,12.93
2019-01-13T00:35:53.692Z,14.13
2019-01-13T00:39:02.026Z,13.40
2019-01-13T00:41:30.300Z,14.33
2019-01-13T00:43:58.543Z,8.17
2019-01-13T00:46:26.803Z,16.85
2019-01-13T00:48:55.062Z,9.05
2019-01-13T00:51:23.454Z,16.73
2019-01-13T00:53:51.703Z,16.87
2019-01-13T00:56:19.988Z,10.50
2019-01-13T00:58:48.253Z,12.57
2019-01-13T01:01:16.540Z,13.77
2019-01-13T01:03:44.880Z,10.27
2019-01-13T01:06:13.242Z,12.33
2019-01-13T01:08:41.500Z,14.23
2019-01-13T01:11:09.896Z,16.33
2019-01-13T01:13:39.131Z,15.55
2019-01-13T01:16:07.482Z,15.33
2019-01-13T01:18:35.753Z,10.40
2019-01-13T01:21:04.033Z,14.77
2019-01-13T01:23:32.307Z,13.13
2019-01-13T01:26:00.537Z,9.63
2019-01-13T01:28:28.810Z,11.43
2019-01-13T01:30:57.067Z,9.97
2019-01-13T01:33:25.974Z,15.50
2019-01-13T01:35:56.639Z,17.20
2019-01-13T01:38:25.367Z,17.30
2019-01-13T01:40:53.628Z,7.83
2019-01-13T01:43:21.907Z,11.77
2019-01-13T01:45:50.203Z,16.77
2019-01-13T01:48:18.454Z,14.43
2019-01-13T01:50:46.714Z,14.63
2019-01-13T01:53:14.990Z,8.10
2019-01-13T01:55:43.251Z,15.13
2019-01-13T01:58:11.523Z,9.93
2019-01-13T02:04:00.620Z,15.35
2019-01-13T02:06:28.880Z,15.47
2019-01-13T02:08:57.146Z,17.70
2019-01-13T02:11:25.462Z,11.93
2019-01-13T02:13:53.726Z,21.93
2019-01-13T02:16:21.992Z,9.90
2019-01-13T02:18:50.238Z,16.77
2019-01-13T02:21:18.529Z,12.35
2019-01-13T02:23:47.122Z,20.43
2019-01-13T02:26:15.392Z,18.07
2019-01-13T02:28:43.680Z,16.27
2019-01-13T02:31:11.968Z,21.87
2019-01-13T02:33:41.278Z,11.25
2019-01-13T02:36:09.542Z,11.83
2019-01-13T02:38:37.784Z,9.77
2019-01-13T02:41:25.172Z,17.20
2019-01-13T02:43:53.460Z,18.27
2019-01-13T02:46:21.745Z,12.55
2019-01-13T02:48:50.014Z,8.85
2019-01-13T02:51:18.298Z,15.80
2019-01-13T02:53:46.555Z,11.88
2019-01-13T02:56:14.828Z,26.00
2019-01-13T02:58:43.104Z,13.13
2019-01-13T03:01:11.376Z,7.27
2019-01-13T03:03:40.569Z,11.55
2019-01-13T03:06:08.861Z,13.70
2019-01-13T03:08:37.145Z,9.33
2019-01-13T03:11:05.472Z,7.10
2019-01-13T03:13:33.785Z,7.53
2019-01-13T03:16:02.038Z,14.00
2019-01-13T03:18:30.302Z,10.90
2019-01-13T03:20:58.573Z,9.77
2019-01-13T03:23:26.856Z,9.50
2019-01-13T03:25:55.121Z,8.23
2019-01-13T03:28:23.383Z,9.85
2019-01-13T03:30:51.670Z,13.72
2019-01-13T03:33:19.935Z,17.48
2019-01-13T03:35:48.197Z,12.90
2019-01-13T03:38:16.454Z,17.07
2019-01-13T03:40:44.720Z,15.40
2019-01-13T03:43:12.980Z,15.83
2019-01-13T03:45:41.252Z,14.80
2019-01-13T03:48:09.545Z,19.20
2019-01-13T03:50:37.797Z,17.43
2019-01-13T03:53:06.084Z,14.63
2019-01-13T03:55:34.347Z,13.00
2019-01-13T03:58:02.620Z,12.80
2019-01-13T04:00:30.912Z,22.30
2019-01-13T04:02:59.170Z,17.13
2019-01-13T04:05:27.434Z,15.83
2019-01-13T04:07:55.707Z,13.03
2019-01-13T04:10:23.978Z,10.10
2019-01-13T04:12:52.252Z,14.43
2019-01-13T04:15:40.740Z,18.48
2019-01-13T04:18:09.012Z,11.97
2019-01-13T04:20:37.277Z,16.00
2019-01-13T04:23:05.599Z,26.60
2019-01-13T04:25:33.866Z,15.05
2019-01-13T04:28:02.164Z,18.03
2019-01-13T04:30:30.387Z,13.90
2019-01-13T04:32:58.656Z,11.93
2019-01-13T04:35:26.909Z,18.97
2019-01-13T04:37:55.172Z,12.87
2019-01-13T04:40:23.421Z,13.83
2019-01-13T04:43:11.026Z,12.30
2019-01-13T04:45:39.309Z,21.27
2019-01-13T04:48:07.579Z,11.22
2019-01-13T04:50:35.859Z,17.82
2019-01-13T04:53:04.200Z,7.28
2019-01-13T04:55:32.450Z,21.87
2019-01-13T04:58:00.720Z,7.35
2019-01-13T05:00:28.972Z,14.63
2019-01-13T05:02:57.250Z,15.87
2019-01-13T05:05:25.541Z,17.13
2019-01-13T05:07:53.829Z,14.40
2019-01-13T05:11:02.124Z,15.30
2019-01-13T05:13:30.397Z,12.03
2019-01-13T05:15:58.689Z,8.50
2019-01-13T05:18:26.947Z,15.23
2019-01-13T05:20:55.225Z,19.30
2019-01-13T05:23:23.501Z,13.00
2019-01-13T05:25:51.840Z,13.97
2019-01-13T05:28:20.078Z,7.93
2019-01-13T05:30:48.361Z,11.35
2019-01-13T05:33:16.617Z,17.30
2019-01-13T05:35:44.894Z,6.80
2019-01-13T05:38:13.168Z,9.80
2019-01-13T05:40:41.470Z,10.80
2019-01-13T05:43:09.739Z,7.80
2019-01-13T05:45:38.111Z,10.40
2019-01-13T05:48:06.404Z,10.27
2019-01-13T05:50:34.698Z,13.45
2019-01-13T05:55:51.917Z,6.00
2019-01-13T05:58:20.162Z,7.97
2019-01-13T06:00:48.696Z,10.13
2019-01-13T06:03:17.021Z,4.80
2019-01-13T06:08:46.908Z,2.60
2019-01-13T06:11:15.228Z,6.63
2019-01-13T06:13:44.263Z,9.50
2019-01-13T06:16:12.557Z,7.80
2019-01-13T06:21:47.965Z,7.73
2019-01-13T06:24:16.244Z,6.90
2019-01-13T06:29:46.112Z,9.03
2019-01-13T06:32:14.491Z,14.23
2019-01-13T06:34:42.753Z,13.80
2019-01-13T06:37:30.167Z,7.15
2019-01-13T06:39:58.467Z,17.23
2019-01-13T06:42:26.743Z,25.87
2019-01-13T06:44:55.424Z,17.37
2019-01-13T06:47:23.720Z,14.73
2019-01-13T06:49:52.002Z,14.83
2019-01-13T06:52:20.335Z,8.63
2019-01-13T06:54:48.649Z,14.20
2019-01-13T06:57:57.027Z,12.93
2019-01-13T07:01:06.139Z,11.00
2019-01-13T07:03:34.479Z,8.98
2019-01-13T07:06:02.802Z,11.50
2019-01-13T07:08:31.138Z,12.30
2019-01-13T07:10:59.417Z,8.83
2019-01-13T07:14:07.721Z,12.07
2019-01-13T07:16:36.080Z,5.60
2019-01-13T07:22:44.216Z,5.40
2019-01-13T07:25:46.592Z,10.70
2019-01-13T07:28:14.887Z,7.60
2019-01-13T07:33:30.523Z,13.13
2019-01-13T07:35:58.773Z,9.23
2019-01-13T07:38:27.047Z,16.03
2019-01-13T07:40:55.335Z,8.90
2019-01-13T07:43:23.627Z,6.87
2019-01-13T07:45:51.887Z,7.50
2019-01-13T07:48:20.154Z,9.95
2019-01-13T07:50:48.480Z,6.50
2019-01-13T07:53:36.111Z,8.30
2019-01-13T07:56:04.418Z,11.00
2019-01-13T07:58:32.738Z,11.50
2019-01-13T08:01:01.105Z,14.47
2019-01-13T08:03:29.362Z,8.40
2019-01-13T08:05:57.614Z,6.73
2019-01-13T08:08:25.881Z,7.50
2019-01-13T08:10:54.165Z,6.63
2019-01-13T08:13:22.452Z,8.83
2019-01-13T08:15:50.751Z,7.50
2019-01-13T08:18:19.048Z,11.27
2019-01-13T08:20:47.313Z,6.43
2019-01-13T08:23:15.601Z,7.53
2019-01-13T08:25:43.867Z,4.67
2019-01-13T08:28:12.194Z,4.00
2019-01-13T08:30:40.437Z,3.75
2019-01-13T08:33:08.709Z,2.83
2019-01-13T08:35:36.996Z,3.67
2019-01-13T08:38:05.256Z,5.12
2019-01-13T08:40:34.794Z,4.40
2019-01-13T08:43:03.605Z,4.33
2019-01-13T08:45:31.928Z,7.83
2019-01-13T08:48:00.269Z,2.83
2019-01-13T08:50:28.637Z,3.35
2019-01-13T08:52:56.906Z,3.70
2019-01-13T08:55:37.648Z,2.80
2019-01-13T08:58:05.895Z,2.60
2019-01-13T09:00:34.214Z,2.47
2019-01-13T09:03:02.517Z,2.40
2019-01-13T09:05:30.854Z,2.70
2019-01-13T09:07:59.131Z,3.67
2019-01-13T09:10:27.415Z,2.30
2019-01-13T09:12:56.980Z,2.45
2019-01-13T09:16:05.780Z,3.35
2019-01-13T09:18:34.070Z,2.67
2019-01-13T09:21:02.311Z,3.17
2019-01-13T09:23:30.580Z,2.57
2019-01-13T09:25:58.859Z,3.63
2019-01-13T09:28:27.128Z,4.63
2019-01-13T09:30:55.410Z,2.93
2019-01-13T09:33:23.668Z,3.13
2019-01-13T09:35:51.931Z,3.10
2019-01-13T09:38:20.350Z,2.30
2019-01-13T09:40:48.620Z,3.55
2019-01-13T09:43:16.872Z,3.83
2019-01-13T09:45:45.149Z,3.30
2019-01-13T09:48:13.432Z,3.42
2019-01-13T09:50:41.718Z,2.27
2019-01-13T09:53:10.010Z,2.30
2019-01-13T09:55:38.331Z,2.20
2019-01-13T09:58:40.622Z,1.50
2019-01-13T10:01:08.910Z,1.90
2019-01-13T10:03:37.452Z,1.83
2019-01-13T10:06:05.737Z,1.40
2019-01-13T10:08:34.019Z,1.20
2019-01-13T10:11:02.298Z,1.40
2019-01-13T10:13:30.568Z,1.40
2019-01-13T10:15:58.849Z,1.07
2019-01-13T10:18:27.136Z,1.47
2019-01-13T10:20:56.162Z,1.30
2019-01-13T10:23:25.410Z,1.30
2019-01-13T10:25:53.689Z,1.47
2019-01-13T10:28:21.977Z,1.10
2019-01-13T10:30:50.267Z,1.27
2019-01-13T10:33:18.531Z,1.20
2019-01-13T10:35:46.802Z,1.30
2019-01-13T10:38:15.094Z,1.00
2019-01-13T10:40:43.370Z,6.20
2019-01-13T10:43:11.669Z,1.30
2019-01-13T10:45:39.960Z,1.23
2019-01-13T10:48:08.309Z,1.20
2019-01-13T10:50:36.612Z,1.90
2019-01-13T10:53:05.078Z,1.57
2019-01-13T10:55:33.344Z,1.67
2019-01-13T10:58:01.620Z,1.50
2019-01-13T11:00:49.226Z,4.67
2019-01-13T11:03:17.571Z,1.98
2019-01-13T11:05:45.823Z,0.93
2019-01-13T11:08:14.100Z,0.90
2019-01-13T11:10:42.386Z,1.93
2019-01-13T11:13:10.649Z,1.47
2019-01-13T11:15:38.919Z,1.30
2019-01-13T11:18:07.238Z,1.87
2019-01-13T11:20:35.567Z,1.83
2019-01-13T11:26:05.563Z,2.20
2019-01-13T11:28:33.837Z,4.00
2019-01-13T11:31:02.105Z,2.80
2019-01-13T11:33:30.397Z,2.07
2019-01-13T11:35:58.671Z,1.50
2019-01-13T11:38:26.949Z,1.52
2019-01-13T11:40:55.215Z,2.83
2019-01-13T11:43:23.488Z,2.63
2019-01-13T11:45:51.781Z,1.17
2019-01-13T11:48:20.051Z,1.53
2019-01-13T11:50:48.314Z,1.53
2019-01-13T11:53:16.581Z,1.67
2019-01-13T11:55:44.867Z,2.42
2019-01-13T11:58:15.728Z,2.13
2019-01-13T12:00:43.132Z,2.40
2019-01-13T12:03:16.704Z,2.75
2019-01-13T12:05:41.452Z,2.93
2019-01-13T12:08:09.949Z,1.93
2019-01-13T12:10:38.304Z,3.37
2019-01-13T12:13:06.648Z,1.60
2019-01-13T12:15:34.949Z,2.00
2019-01-13T12:18:03.282Z,2.15
2019-01-13T12:20:31.629Z,1.92
2019-01-13T12:22:59.900Z,4.55
2019-01-13T12:25:28.168Z,2.40
2019-01-13T12:27:56.490Z,3.00
2019-01-13T12:30:44.121Z,5.28
2019-01-13T12:33:12.380Z,5.23
2019-01-13T12:35:40.645Z,4.13
2019-01-13T12:38:08.941Z,7.47
2019-01-13T12:40:37.248Z,3.40
2019-01-13T12:43:05.580Z,14.80
2019-01-13T12:45:33.837Z,11.17
2019-01-13T12:48:02.120Z,15.50
2019-01-13T12:51:04.222Z,5.37
2019-01-13T12:53:32.493Z,10.73
2019-01-13T12:56:00.760Z,13.03
2019-01-13T12:58:29.039Z,14.13
2019-01-13T13:00:57.296Z,16.00
2019-01-13T13:03:31.635Z,10.88
2019-01-13T13:05:55.586Z,18.53
2019-01-13T13:08:23.857Z,13.80
2019-01-13T13:10:52.112Z,14.13
2019-01-13T13:13:20.382Z,13.60
2019-01-13T13:15:48.675Z,10.60
2019-01-13T13:18:16.943Z,15.20
2019-01-13T13:20:45.201Z,12.50
2019-01-13T13:23:13.547Z,19.43
2019-01-13T13:25:41.832Z,24.80
2019-01-13T13:28:10.102Z,26.37
2019-01-13T13:30:38.370Z,22.95
2019-01-13T13:33:06.653Z,22.52
2019-01-13T13:35:39.666Z,34.55
2019-01-13T13:38:04.968Z,18.73
2019-01-13T13:40:33.243Z,25.00
2019-01-13T13:43:01.513Z,16.13
2019-01-13T13:45:29.781Z,31.17
2019-01-13T13:47:58.043Z,23.60
2019-01-13T13:51:00.346Z,22.87
2019-01-13T13:53:28.602Z,30.93
2019-01-13T13:55:56.870Z,15.20
2019-01-13T13:58:25.125Z,23.27
2019-01-13T14:00:53.373Z,29.63
2019-01-13T14:03:21.644Z,15.27
2019-01-13T14:05:49.904Z,28.73
2019-01-13T14:08:18.164Z,20.70
2019-01-13T14:10:46.444Z,21.57
2019-01-13T14:13:14.709Z,12.90
2019-01-13T14:15:43.037Z,12.77
2019-01-13T14:18:11.323Z,15.23
2019-01-13T14:20:39.590Z,21.00
2019-01-13T14:23:07.862Z,19.57
2019-01-13T14:25:36.117Z,12.93
2019-01-13T14:28:04.480Z,13.43
2019-01-13T14:30:32.750Z,6.13
2019-01-13T14:33:01.015Z,16.40
2019-01-13T14:35:29.380Z,10.80
2019-01-13T14:37:57.691Z,18.20
2019-01-13T14:40:26.390Z,14.40
2019-01-13T14:42:54.661Z,20.00
2019-01-13T14:45:56.940Z,16.27
2019-01-13T14:48:25.229Z,16.47
2019-01-13T14:50:53.495Z,17.80
2019-01-13T14:53:21.771Z,18.73
2019-01-13T14:55:50.066Z,10.55
2019-01-13T14:58:32.595Z,21.70
2019-01-13T15:00:48.365Z,15.10
2019-01-13T15:03:16.651Z,19.57
2019-01-13T15:05:44.990Z,10.10
2019-01-13T15:08:13.273Z,4.17
2019-01-13T15:10:41.537Z,4.93
2019-01-13T15:13:09.779Z,2.47
2019-01-13T15:15:38.074Z,5.10
2019-01-13T15:18:06.368Z,5.47
2019-01-13T15:20:34.651Z,3.17
2019-01-13T15:23:03.044Z,2.33
2019-01-13T15:25:31.398Z,6.03
2019-01-13T15:27:59.780Z,6.33
2019-01-13T15:31:08.395Z,5.10
2019-01-13T15:33:37.004Z,4.80
2019-01-13T15:36:05.313Z,9.73
2019-01-13T15:38:33.634Z,7.30
2019-01-13T15:41:02.277Z,6.40
2019-01-13T15:46:47.286Z,5.13
2019-01-13T15:49:29.394Z,11.63
2019-01-13T15:52:24.503Z,7.50
2019-01-13T15:55:34.090Z,11.73
2019-01-13T15:58:02.466Z,11.12
2019-01-13T16:01:11.736Z,12.35
2019-01-13T16:03:40.005Z,11.33
2019-01-13T16:06:08.292Z,17.60
2019-01-13T16:08:36.579Z,15.80
2019-01-13T16:11:04.894Z,17.73
2019-01-13T16:13:33.178Z,13.22
2019-01-13T16:16:01.475Z,21.27
2019-01-13T16:18:29.837Z,16.80
2019-01-13T16:20:58.138Z,20.57
2019-01-13T16:23:45.792Z,16.80
2019-01-13T16:26:14.078Z,18.60
2019-01-13T16:28:42.380Z,24.87
2019-01-13T16:31:10.640Z,13.90
2019-01-13T16:33:38.922Z,22.48
2019-01-13T16:36:07.237Z,11.73
2019-01-13T16:38:35.505Z,16.87
2019-01-13T16:41:03.751Z,9.80
2019-01-13T16:43:32.010Z,13.40
2019-01-13T16:46:00.343Z,13.17
2019-01-13T16:48:28.623Z,24.17
2019-01-13T16:50:56.885Z,12.57
2019-01-13T16:53:25.158Z,9.50
2019-01-13T16:55:53.417Z,12.10
2019-01-13T16:58:21.681Z,15.77
2019-01-13T17:00:49.952Z,18.87
2019-01-13T17:03:18.227Z,19.77
2019-01-13T17:05:46.468Z,13.22
2019-01-13T17:08:14.920Z,28.35
2019-01-13T17:10:43.167Z,13.78
2019-01-13T17:13:11.601Z,25.15
2019-01-13T17:15:39.883Z,24.65
2019-01-13T17:18:08.201Z,23.47
2019-01-13T17:20:36.524Z,19.98
2019-01-13T17:23:44.844Z,19.67
2019-01-13T17:26:13.130Z,22.97
2019-01-13T17:28:41.382Z,30.03
2019-01-13T17:31:09.705Z,18.57
2019-01-13T17:33:38.937Z,29.77
2019-01-13T17:36:07.217Z,25.10
2019-01-13T17:38:35.481Z,17.83
2019-01-13T17:41:03.791Z,16.63
2019-01-13T17:43:32.047Z,18.43
2019-01-13T17:48:59.264Z,26.30
2019-01-13T17:54:35.614Z,18.95
2019-01-13T18:00:38.818Z,23.47
2019-01-13T18:03:40.903Z,21.83
2019-01-13T18:06:09.184Z,23.10
2019-01-13T18:08:37.490Z,17.13
2019-01-13T18:11:05.766Z,27.73
2019-01-13T18:13:34.053Z,29.45
2019-01-13T18:16:02.335Z,20.10
2019-01-13T18:18:30.599Z,18.73
2019-01-13T18:20:58.863Z,20.65
2019-01-13T18:23:27.146Z,21.97
2019-01-13T18:25:55.434Z,19.27
2019-01-13T18:28:23.968Z,23.22
2019-01-13T18:30:53.709Z,18.67
2019-01-13T18:33:22.018Z,24.15
2019-01-13T18:35:50.291Z,16.03
2019-01-13T18:38:18.554Z,27.73
2019-01-13T18:40:46.833Z,27.07
2019-01-13T18:43:15.120Z,21.87
2019-01-13T18:46:16.967Z,23.80
2019-01-13T18:48:45.298Z,16.83
2019-01-13T18:51:13.578Z,15.40
2019-01-13T18:53:42.364Z,21.57
2019-01-13T18:56:10.633Z,21.37
2019-01-13T18:58:38.906Z,13.80
2019-01-13T19:01:07.179Z,15.50
2019-01-13T19:03:35.458Z,10.93
2019-01-13T19:06:03.969Z,18.13
2019-01-13T19:08:32.193Z,21.93
2019-01-13T19:11:40.512Z,29.43
2019-01-13T19:14:48.824Z,18.90
2019-01-13T19:17:17.112Z,6.97
2019-01-13T19:19:45.447Z,21.47
2019-01-13T19:22:13.717Z,18.10
2019-01-13T19:24:41.975Z,17.40
2019-01-13T19:27:10.244Z,14.05
2019-01-13T19:29:38.523Z,12.57
2019-01-13T19:32:06.800Z,18.20
2019-01-13T19:34:35.119Z,11.70
2019-01-13T19:37:03.355Z,22.17
2019-01-13T19:39:31.644Z,30.27
2019-01-13T19:41:59.912Z,18.02
2019-01-13T19:44:28.167Z,16.43
2019-01-13T19:46:56.438Z,17.10
2019-01-13T19:49:24.696Z,16.93
2019-01-13T19:51:52.964Z,16.10
2019-01-13T19:54:21.229Z,6.58
2019-01-13T19:56:49.493Z,10.90
2019-01-13T19:59:17.767Z,15.60
2019-01-13T20:01:46.030Z,17.10
2019-01-13T20:04:14.305Z,11.63
2019-01-13T20:06:42.565Z,31.13
2019-01-13T20:11:49.769Z,17.37
2019-01-13T20:14:18.009Z,18.00
2019-01-13T20:16:46.283Z,12.47
2019-01-13T20:19:14.534Z,15.93
2019-01-13T20:21:42.830Z,9.97
2019-01-13T20:24:11.112Z,10.35
2019-01-13T20:26:39.383Z,8.70
2019-01-13T20:29:07.673Z,9.13
2019-01-13T20:31:35.971Z,13.70
2019-01-13T20:34:04.217Z,14.65
2019-01-13T20:36:32.470Z,9.08
2019-01-13T20:39:00.724Z,8.73
2019-01-13T20:41:28.973Z,11.00
2019-01-13T20:43:57.230Z,12.78
2019-01-13T20:46:25.499Z,10.93
2019-01-13T20:48:53.766Z,12.90
2019-01-13T20:51:22.028Z,15.83
2019-01-13T20:53:50.299Z,10.15
2019-01-13T20:56:18.583Z,10.63
2019-01-13T20:58:46.823Z,13.33
2019-01-13T21:01:15.099Z,6.43
2019-01-13T21:03:43.631Z,13.48
2019-01-13T21:06:11.887Z,4.37
2019-01-13T21:08:40.143Z,19.77
2019-01-13T21:11:08.483Z,9.90
2019-01-13T21:13:36.718Z,12.43
2019-01-13T21:16:05.158Z,14.43
2019-01-13T21:18:33.402Z,18.47
2019-01-13T21:21:01.659Z,17.93
2019-01-13T21:23:29.930Z,17.40
2019-01-13T21:25:58.219Z,18.70
2019-01-13T21:28:26.479Z,16.30
2019-01-13T21:30:54.742Z,24.53
2019-01-13T21:33:22.997Z,24.77
2019-01-13T21:35:51.327Z,22.30
2019-01-13T21:38:19.600Z,20.90
2019-01-13T21:40:47.880Z,16.90
2019-01-13T21:43:16.114Z,22.07
2019-01-13T21:45:44.373Z,26.10
2019-01-13T21:48:12.626Z,15.70
2019-01-13T21:50:40.902Z,26.40
2019-01-13T21:53:09.167Z,18.90
2019-01-13T21:55:37.422Z,24.43
2019-01-13T21:58:05.692Z,12.77
2019-01-13T22:00:33.937Z,25.10
2019-01-13T22:03:02.172Z,17.27
2019-01-13T22:05:30.439Z,10.87
2019-01-13T22:07:58.689Z,18.00
2019-01-13T22:10:28.025Z,20.15
2019-01-13T22:12:56.928Z,14.67
2019-01-13T22:15:25.182Z,28.20
2019-01-13T22:17:53.438Z,13.03
2019-01-13T22:20:23.052Z,19.07
2019-01-13T22:23:24.988Z,21.10
2019-01-13T22:25:53.280Z,19.57
2019-01-13T22:28:21.540Z,16.60
2019-01-13T22:30:49.800Z,19.10
2019-01-13T22:33:18.061Z,13.73
2019-01-13T22:35:48.306Z,19.65
2019-01-13T22:38:16.311Z,14.57
2019-01-13T22:40:44.562Z,19.30
2019-01-13T22:43:12.817Z,29.10
2019-01-13T22:45:41.076Z,16.40
2019-01-13T22:48:09.345Z,26.03
2019-01-13T22:50:37.591Z,17.70
2019-01-13T22:53:05.864Z,25.67
2019-01-13T22:55:34.119Z,25.83
2019-01-13T22:58:02.391Z,21.27
2019-01-13T23:01:11.009Z,22.30
2019-01-13T23:03:39.259Z,20.03
2019-01-13T23:06:07.663Z,16.33
2019-01-13T23:08:35.930Z,21.82
2019-01-13T23:11:04.327Z,29.52
2019-01-13T23:13:32.601Z,24.10
2019-01-13T23:16:00.858Z,21.63
2019-01-13T23:18:29.140Z,20.20
2019-01-13T23:20:57.404Z,19.15
2019-01-13T23:23:25.642Z,31.87
2019-01-13T23:25:53.921Z,21.12
2019-01-13T23:28:22.164Z,23.13
2019-01-13T23:30:50.423Z,21.73
2019-01-13T23:33:18.664Z,25.80
2019-01-13T23:35:46.912Z,27.20
2019-01-13T23:38:15.235Z,16.90
2019-01-13T23:40:43.487Z,26.20
2019-01-13T23:43:11.816Z,21.97
2019-01-13T23:45:40.062Z,27.48
2019-01-13T23:48:08.333Z,28.17
2019-01-13T23:50:36.578Z,35.50
2019-01-13T23:53:04.836Z,24.77
2019-01-13T23:55:33.079Z,22.67
2019-01-13T23:58:01.343Z,15.13
